createdAt,value
2023-07-31T00:01:28.843Z,20.14
2023-07-31T00:04:32.055Z,20.06
2023-07-31T00:07:34.725Z,19.94
2023-07-31T00:10:37.636Z,20.16
2023-07-31T00:13:40.242Z,20.06
2023-07-31T00:16:43.512Z,20.07
2023-07-31T00:19:47.354Z,20.07
2023-07-31T00:22:50.331Z,20.07
2023-07-31T00:25:53.107Z,19.95
2023-07-31T00:28:56.010Z,19.86
2023-07-31T00:31:58.608Z,19.91
2023-07-31T00:35:01.644Z,19.79
2023-07-31T00:38:06.472Z,19.81
2023-07-31T00:41:09.793Z,19.81
2023-07-31T00:44:12.445Z,19.72
2023-07-31T00:47:15.380Z,19.86
2023-07-31T00:50:19.411Z,19.75
2023-07-31T00:53:22.475Z,19.96
2023-07-31T00:56:28.625Z,19.97
2023-07-31T00:59:31.523Z,19.69
2023-07-31T01:02:34.340Z,19.60
2023-07-31T01:05:50.293Z,19.87
2023-07-31T01:09:02.135Z,19.86
2023-07-31T01:12:07.817Z,19.65
2023-07-31T01:15:15.070Z,19.80
2023-07-31T01:18:18.132Z,19.57
2023-07-31T01:21:26.974Z,19.79
2023-07-31T01:24:45.288Z,19.66
2023-07-31T01:28:43.357Z,19.62
2023-07-31T01:31:51.138Z,19.50
2023-07-31T01:34:54.724Z,19.45
2023-07-31T01:37:57.697Z,19.52
2023-07-31T01:41:00.275Z,19.47
2023-07-31T01:44:03.170Z,19.52
2023-07-31T01:47:06.847Z,19.55
2023-07-31T01:50:10.477Z,19.59
2023-07-31T01:53:14.381Z,19.47
2023-07-31T01:56:17.483Z,19.38
2023-07-31T01:59:20.112Z,19.25
2023-07-31T02:02:24.236Z,19.43
2023-07-31T02:05:30.087Z,19.43
2023-07-31T02:08:32.720Z,19.51
2023-07-31T02:11:35.609Z,19.44
2023-07-31T02:14:38.354Z,19.70
2023-07-31T02:17:41.323Z,19.54
2023-07-31T02:20:45.284Z,19.51
2023-07-31T02:23:49.175Z,19.55
2023-07-31T02:26:51.777Z,19.49
2023-07-31T02:29:55.657Z,19.42
2023-07-31T02:32:58.536Z,19.66
2023-07-31T02:36:02.839Z,19.63
2023-07-31T02:39:05.632Z,19.48
2023-07-31T02:42:08.452Z,19.40
2023-07-31T02:45:11.138Z,19.37
2023-07-31T02:48:14.761Z,19.40
2023-07-31T02:51:17.477Z,19.35
2023-07-31T02:54:22.652Z,19.35
2023-07-31T02:57:25.547Z,19.37
2023-07-31T03:00:29.127Z,19.31
2023-07-31T03:03:31.846Z,19.15
2023-07-31T03:06:34.782Z,18.88
2023-07-31T03:09:37.515Z,18.92
2023-07-31T03:12:41.553Z,18.74
2023-07-31T03:15:44.830Z,18.89
2023-07-31T03:18:47.802Z,19.13
2023-07-31T03:21:50.389Z,19.09
2023-07-31T03:24:53.319Z,19.10
2023-07-31T03:27:56.244Z,19.10
2023-07-31T03:31:00.066Z,19.12
2023-07-31T03:34:04.900Z,19.36
2023-07-31T03:37:10.363Z,19.45
2023-07-31T03:40:12.942Z,19.42
2023-07-31T03:43:16.971Z,19.70
2023-07-31T03:46:19.834Z,19.91
2023-07-31T03:49:25.504Z,20.03
2023-07-31T03:52:28.055Z,19.94
2023-07-31T03:55:30.957Z,20.43
2023-07-31T03:58:33.766Z,20.40
2023-07-31T04:01:36.647Z,20.60
2023-07-31T04:04:40.270Z,20.95
2023-07-31T04:07:42.933Z,21.21
2023-07-31T04:10:45.975Z,20.98
2023-07-31T04:13:48.668Z,20.85
2023-07-31T04:16:51.943Z,20.85
2023-07-31T04:19:54.624Z,20.97
2023-07-31T04:22:57.600Z,21.04
2023-07-31T04:26:00.268Z,21.14
2023-07-31T04:29:03.298Z,20.84
2023-07-31T04:32:06.133Z,21.35
2023-07-31T04:35:09.198Z,21.29
2023-07-31T04:38:11.741Z,21.14
2023-07-31T04:41:15.005Z,21.44
2023-07-31T04:44:17.661Z,21.57
2023-07-31T04:47:20.978Z,21.64
2023-07-31T04:50:25.636Z,21.80
2023-07-31T04:53:29.008Z,21.74
2023-07-31T04:56:31.584Z,22.09
2023-07-31T04:59:34.568Z,22.31
2023-07-31T05:02:37.239Z,21.62
2023-07-31T05:05:40.302Z,21.06
2023-07-31T05:08:43.007Z,20.86
2023-07-31T05:11:46.096Z,20.70
2023-07-31T05:14:48.651Z,20.79
2023-07-31T05:17:51.561Z,21.06
2023-07-31T05:20:54.188Z,21.41
2023-07-31T05:23:57.174Z,21.57
2023-07-31T05:26:59.728Z,21.93
2023-07-31T05:30:03.123Z,22.45
2023-07-31T05:33:05.896Z,22.65
2023-07-31T05:36:08.884Z,22.68
2023-07-31T05:39:11.495Z,23.65
2023-07-31T05:42:14.410Z,23.75
2023-07-31T05:45:16.988Z,23.29
2023-07-31T05:48:20.263Z,22.46
2023-07-31T05:51:23.285Z,21.88
2023-07-31T05:54:27.168Z,22.25
2023-07-31T05:57:29.758Z,22.33
2023-07-31T06:00:32.983Z,23.45
2023-07-31T06:03:36.097Z,24.38
2023-07-31T06:06:39.088Z,23.78
2023-07-31T06:09:42.220Z,22.89
2023-07-31T06:12:44.998Z,22.71
2023-07-31T06:15:47.804Z,22.68
2023-07-31T06:18:50.439Z,22.77
2023-07-31T06:21:53.421Z,23.04
2023-07-31T06:24:56.132Z,24.10
2023-07-31T06:27:59.082Z,24.89
2023-07-31T06:31:02.288Z,24.99
2023-07-31T06:34:05.536Z,24.75
2023-07-31T06:37:09.667Z,24.55
2023-07-31T06:40:12.696Z,25.60
2023-07-31T06:43:15.247Z,24.94
2023-07-31T06:46:18.685Z,26.65
2023-07-31T06:49:21.329Z,27.69
2023-07-31T06:52:24.204Z,26.56
2023-07-31T06:55:27.613Z,27.53
2023-07-31T06:58:30.475Z,26.98
2023-07-31T07:01:33.128Z,26.58
2023-07-31T07:04:36.395Z,25.55
2023-07-31T07:07:39.185Z,24.91
2023-07-31T07:10:42.715Z,24.96
2023-07-31T07:13:45.314Z,24.51
2023-07-31T07:16:52.481Z,24.39
2023-07-31T07:19:56.161Z,24.19
2023-07-31T07:22:59.122Z,23.89
2023-07-31T07:26:01.775Z,24.96
2023-07-31T07:29:04.753Z,24.89
2023-07-31T07:32:07.603Z,24.65
2023-07-31T07:35:10.983Z,25.01
2023-07-31T07:38:16.037Z,25.40
2023-07-31T07:41:18.909Z,25.62
2023-07-31T07:44:21.551Z,25.74
2023-07-31T07:47:24.807Z,26.66
2023-07-31T07:50:28.129Z,26.79
2023-07-31T07:53:30.974Z,27.25
2023-07-31T07:56:34.496Z,27.09
2023-07-31T07:59:37.339Z,28.62
2023-07-31T08:02:39.973Z,28.12
2023-07-31T08:05:43.232Z,26.93
2023-07-31T08:08:45.886Z,26.30
2023-07-31T08:11:48.816Z,26.17
2023-07-31T08:14:51.621Z,25.69
2023-07-31T08:17:54.583Z,25.47
2023-07-31T08:20:57.157Z,26.09
2023-07-31T08:24:00.151Z,27.51
2023-07-31T08:27:02.774Z,28.43
2023-07-31T08:30:06.667Z,28.09
2023-07-31T08:33:09.383Z,29.19
2023-07-31T08:36:12.368Z,28.62
2023-07-31T08:39:15.032Z,28.17
2023-07-31T08:42:19.412Z,28.88
2023-07-31T08:45:22.378Z,29.48
2023-07-31T08:48:27.274Z,28.38
2023-07-31T08:51:31.091Z,28.92
2023-07-31T08:54:34.608Z,29.29
2023-07-31T08:57:39.384Z,29.60
2023-07-31T09:00:45.058Z,29.91
2023-07-31T09:03:48.944Z,28.98
2023-07-31T09:06:58.247Z,29.93
2023-07-31T09:10:01.042Z,30.79
2023-07-31T09:13:05.216Z,30.06
2023-07-31T09:16:10.212Z,30.72
2023-07-31T09:19:13.276Z,31.22
2023-07-31T09:22:16.314Z,29.86
2023-07-31T09:25:28.295Z,30.22
2023-07-31T09:28:32.852Z,29.64
2023-07-31T09:31:46.304Z,30.52
2023-07-31T09:34:49.162Z,30.35
2023-07-31T09:37:59.847Z,30.49
2023-07-31T09:41:02.764Z,29.70
2023-07-31T09:44:05.828Z,30.12
2023-07-31T09:47:23.096Z,30.50
2023-07-31T09:50:26.597Z,30.68
2023-07-31T09:53:33.353Z,29.57
2023-07-31T09:56:37.705Z,31.10
2023-07-31T09:59:40.885Z,30.19
2023-07-31T10:02:47.290Z,29.37
2023-07-31T10:05:56.617Z,30.06
2023-07-31T10:09:00.174Z,31.20
2023-07-31T10:12:10.969Z,30.52
2023-07-31T10:15:16.820Z,30.34
2023-07-31T10:18:20.812Z,31.30
2023-07-31T10:21:23.420Z,31.69
2023-07-31T10:24:28.129Z,31.37
2023-07-31T10:27:30.794Z,30.80
2023-07-31T10:30:36.040Z,30.65
2023-07-31T10:33:39.271Z,30.89
2023-07-31T10:36:42.328Z,31.20
2023-07-31T10:39:45.047Z,32.10
2023-07-31T10:42:50.714Z,30.57
2023-07-31T10:45:53.350Z,32.78
2023-07-31T10:49:01.729Z,32.63
2023-07-31T10:52:05.475Z,31.84
2023-07-31T10:55:16.082Z,30.98
2023-07-31T10:58:20.653Z,30.35
2023-07-31T11:01:23.718Z,31.13
2023-07-31T11:04:28.550Z,31.12
2023-07-31T11:07:47.958Z,30.48
2023-07-31T11:11:02.837Z,32.00
2023-07-31T11:14:05.896Z,31.37
2023-07-31T11:17:09.223Z,31.17
2023-07-31T11:20:13.275Z,32.63
2023-07-31T11:23:18.285Z,32.13
2023-07-31T11:26:21.360Z,30.93
2023-07-31T11:29:31.883Z,31.17
2023-07-31T11:32:34.744Z,31.14
2023-07-31T11:35:46.317Z,31.07
2023-07-31T11:38:49.601Z,32.20
2023-07-31T11:41:53.125Z,32.04
2023-07-31T11:44:56.355Z,31.75
2023-07-31T11:47:59.134Z,31.37
2023-07-31T11:51:07.858Z,32.49
2023-07-31T11:54:12.700Z,31.25
2023-07-31T11:57:16.540Z,30.00
2023-07-31T12:00:19.769Z,31.11
2023-07-31T12:03:22.913Z,30.95
2023-07-31T12:06:36.482Z,29.48
2023-07-31T12:09:40.696Z,29.97
2023-07-31T12:12:43.372Z,29.08
2023-07-31T12:15:47.316Z,28.98
2023-07-31T12:18:50.704Z,28.64
2023-07-31T12:21:54.765Z,29.05
2023-07-31T12:24:58.884Z,28.49
2023-07-31T12:28:08.699Z,28.90
2023-07-31T12:31:13.238Z,28.41
2023-07-31T12:34:22.265Z,28.52
2023-07-31T12:37:24.812Z,28.31
2023-07-31T12:40:33.165Z,28.48
2023-07-31T12:43:36.963Z,27.89
2023-07-31T12:46:40.474Z,27.90
2023-07-31T12:49:43.416Z,27.71
2023-07-31T12:52:46.418Z,28.19
2023-07-31T12:55:49.541Z,28.01
2023-07-31T12:58:52.479Z,27.62
2023-07-31T13:01:55.280Z,27.74
2023-07-31T13:05:00.550Z,28.07
2023-07-31T13:08:03.327Z,27.66
2023-07-31T13:11:06.325Z,27.94
2023-07-31T13:14:08.960Z,27.94
2023-07-31T13:17:11.904Z,27.97
2023-07-31T13:20:14.723Z,28.07
2023-07-31T13:23:17.531Z,28.07
2023-07-31T13:26:20.183Z,27.75
2023-07-31T13:29:23.159Z,27.96
2023-07-31T13:32:25.853Z,27.60
2023-07-31T13:35:29.053Z,27.48
2023-07-31T13:38:31.877Z,27.61
2023-07-31T13:41:35.052Z,27.96
2023-07-31T13:44:37.748Z,27.45
2023-07-31T13:47:40.852Z,27.35
2023-07-31T13:50:43.571Z,27.45
2023-07-31T13:53:46.540Z,27.30
2023-07-31T13:56:49.529Z,26.81
2023-07-31T13:59:52.794Z,26.81
2023-07-31T14:02:55.848Z,26.91
2023-07-31T14:05:58.870Z,27.04
2023-07-31T14:09:01.502Z,26.86
2023-07-31T14:12:04.850Z,26.76
2023-07-31T14:15:09.333Z,26.89
2023-07-31T14:18:12.729Z,26.95
2023-07-31T14:21:15.591Z,27.14
2023-07-31T14:24:18.449Z,27.28
2023-07-31T14:27:21.044Z,27.60
2023-07-31T14:30:25.299Z,27.79
2023-07-31T14:33:28.274Z,27.32
2023-07-31T14:36:31.366Z,27.41
2023-07-31T14:39:33.912Z,27.40
2023-07-31T14:42:37.227Z,27.37
2023-07-31T14:45:39.803Z,27.27
2023-07-31T14:48:42.796Z,27.66
2023-07-31T14:51:45.382Z,28.09
2023-07-31T14:54:48.728Z,27.50
2023-07-31T14:57:51.353Z,27.69
2023-07-31T15:00:54.444Z,27.62
2023-07-31T15:03:57.244Z,27.74
2023-07-31T15:07:00.128Z,27.07
2023-07-31T15:10:03.813Z,27.44
2023-07-31T15:13:07.142Z,26.96
2023-07-31T15:16:09.812Z,27.10
2023-07-31T15:19:13.010Z,27.12
2023-07-31T15:22:15.680Z,27.28
2023-07-31T15:25:18.772Z,27.26
2023-07-31T15:28:21.592Z,26.85
2023-07-31T15:31:25.102Z,27.03
2023-07-31T15:34:28.359Z,26.85
2023-07-31T15:37:31.283Z,26.84
2023-07-31T15:40:34.484Z,26.97
2023-07-31T15:43:37.922Z,26.80
2023-07-31T15:46:40.706Z,26.85
2023-07-31T15:49:43.865Z,26.88
2023-07-31T15:52:46.547Z,26.82
2023-07-31T15:55:49.374Z,26.70
2023-07-31T15:58:52.728Z,26.87
2023-07-31T16:01:55.748Z,26.87
2023-07-31T16:04:58.796Z,26.68
2023-07-31T16:08:01.481Z,26.50
2023-07-31T16:11:04.598Z,26.22
2023-07-31T16:14:07.244Z,26.26
2023-07-31T16:17:11.059Z,26.29
2023-07-31T16:20:13.802Z,26.39
2023-07-31T16:23:16.756Z,26.38
2023-07-31T16:26:19.589Z,25.96
2023-07-31T16:29:22.597Z,25.79
2023-07-31T16:32:25.223Z,26.04
2023-07-31T16:35:28.549Z,25.94
2023-07-31T16:38:31.299Z,25.71
2023-07-31T16:41:34.316Z,25.69
2023-07-31T16:44:37.105Z,25.63
2023-07-31T16:47:39.986Z,25.67
2023-07-31T16:50:43.444Z,25.60
2023-07-31T16:53:47.476Z,25.54
2023-07-31T16:56:59.418Z,25.50
2023-07-31T17:00:03.728Z,25.44
2023-07-31T17:03:07.146Z,25.31
2023-07-31T17:06:10.470Z,25.01
2023-07-31T17:09:13.035Z,25.10
2023-07-31T17:12:16.076Z,25.01
2023-07-31T17:15:18.699Z,25.02
2023-07-31T17:18:21.683Z,24.84
2023-07-31T17:21:24.862Z,24.83
2023-07-31T17:24:27.741Z,24.90
2023-07-31T17:27:30.481Z,24.79
2023-07-31T17:30:33.416Z,24.88
2023-07-31T17:33:36.008Z,24.90
2023-07-31T17:36:39.745Z,24.66
2023-07-31T17:39:42.681Z,24.63
2023-07-31T17:42:45.694Z,24.60
2023-07-31T17:45:48.616Z,24.57
2023-07-31T17:48:51.793Z,24.44
2023-07-31T17:51:54.503Z,24.57
2023-07-31T17:54:57.561Z,24.65
2023-07-31T17:58:00.174Z,24.54
2023-07-31T18:01:03.598Z,24.34
2023-07-31T18:04:06.900Z,24.52
2023-07-31T18:07:10.108Z,24.43
2023-07-31T18:10:13.051Z,24.40
2023-07-31T18:13:18.170Z,24.26
2023-07-31T18:16:26.354Z,24.19
2023-07-31T18:19:29.160Z,24.09
2023-07-31T18:22:32.570Z,24.11
2023-07-31T18:25:35.194Z,23.85
2023-07-31T18:28:38.272Z,23.68
2023-07-31T18:31:41.180Z,23.65
2023-07-31T18:34:44.314Z,23.63
2023-07-31T18:37:47.301Z,23.46
2023-07-31T18:40:50.394Z,23.36
2023-07-31T18:43:53.407Z,23.38
2023-07-31T18:46:56.530Z,23.35
2023-07-31T18:49:59.310Z,23.27
2023-07-31T18:53:03.391Z,23.20
2023-07-31T18:56:06.121Z,23.11
2023-07-31T18:59:09.048Z,23.09
2023-07-31T19:02:12.943Z,23.01
2023-07-31T19:05:16.013Z,22.89
2023-07-31T19:08:19.586Z,22.79
2023-07-31T19:11:32.726Z,22.81
2023-07-31T19:14:37.856Z,22.76
2023-07-31T19:17:41.834Z,22.66
2023-07-31T19:20:44.492Z,22.69
2023-07-31T19:23:47.629Z,22.59
2023-07-31T19:26:50.321Z,22.63
2023-07-31T19:29:53.694Z,22.51
2023-07-31T19:32:56.399Z,22.39
2023-07-31T19:36:00.445Z,22.35
2023-07-31T19:39:03.425Z,22.18
2023-07-31T19:42:06.532Z,22.17
2023-07-31T19:45:09.839Z,22.20
2023-07-31T19:48:12.883Z,22.18
2023-07-31T19:51:18.568Z,22.21
2023-07-31T19:54:21.992Z,22.16
2023-07-31T19:57:24.733Z,22.10
2023-07-31T20:00:27.723Z,21.95
2023-07-31T20:03:30.636Z,21.85
2023-07-31T20:06:33.278Z,21.73
2023-07-31T20:09:36.322Z,21.68
2023-07-31T20:12:39.090Z,21.61
2023-07-31T20:15:42.723Z,21.58
2023-07-31T20:18:46.462Z,21.60
2023-07-31T20:21:49.383Z,21.52
2023-07-31T20:24:52.139Z,21.53
2023-07-31T20:27:55.115Z,21.55
2023-07-31T20:30:57.739Z,21.53
2023-07-31T20:34:00.655Z,21.50
2023-07-31T20:37:03.425Z,21.53
2023-07-31T20:40:09.846Z,21.50
2023-07-31T20:43:16.728Z,21.27
2023-07-31T20:46:20.850Z,21.20
2023-07-31T20:49:23.825Z,21.35
2023-07-31T20:52:26.757Z,21.31
2023-07-31T20:55:29.663Z,21.34
2023-07-31T20:58:32.600Z,21.43
2023-07-31T21:01:35.508Z,21.17
2023-07-31T21:04:38.498Z,21.14
2023-07-31T21:07:43.656Z,21.06
2023-07-31T21:10:46.893Z,21.20
2023-07-31T21:13:53.719Z,21.24
2023-07-31T21:16:56.747Z,21.15
2023-07-31T21:19:59.338Z,20.98
2023-07-31T21:23:07.036Z,21.10
2023-07-31T21:26:09.955Z,20.83
2023-07-31T21:29:12.893Z,20.90
2023-07-31T21:32:15.901Z,20.97
2023-07-31T21:35:19.626Z,21.03
2023-07-31T21:38:22.362Z,20.91
2023-07-31T21:41:25.852Z,20.76
2023-07-31T21:44:28.381Z,20.72
2023-07-31T21:47:31.388Z,20.71
2023-07-31T21:50:34.452Z,20.53
2023-07-31T21:53:37.436Z,20.50
2023-07-31T21:56:40.454Z,20.38
2023-07-31T21:59:43.622Z,20.32
2023-07-31T22:02:48.418Z,20.36
2023-07-31T22:05:51.951Z,20.31
2023-07-31T22:08:54.689Z,20.22
2023-07-31T22:11:57.682Z,20.15
2023-07-31T22:15:00.371Z,20.09
2023-07-31T22:18:04.755Z,20.15
2023-07-31T22:21:08.522Z,20.10
2023-07-31T22:24:11.734Z,20.11
2023-07-31T22:27:17.566Z,19.85
2023-07-31T22:30:20.440Z,19.98
2023-07-31T22:33:23.150Z,19.90
2023-07-31T22:36:26.261Z,19.83
2023-07-31T22:39:28.825Z,19.84
2023-07-31T22:42:34.111Z,19.47
2023-07-31T22:45:36.649Z,19.39
2023-07-31T22:48:39.857Z,19.29
2023-07-31T22:51:42.466Z,19.47
2023-07-31T22:54:45.452Z,19.50
2023-07-31T22:57:48.103Z,19.38
2023-07-31T23:00:51.641Z,19.47
2023-07-31T23:03:54.432Z,19.53
2023-07-31T23:06:58.413Z,19.54
2023-07-31T23:10:01.112Z,19.57
2023-07-31T23:13:04.199Z,19.55
2023-07-31T23:16:06.848Z,19.62
2023-07-31T23:19:09.932Z,19.27
2023-07-31T23:22:13.257Z,19.23
2023-07-31T23:25:17.610Z,19.22
2023-07-31T23:28:21.409Z,19.04
2023-07-31T23:31:25.550Z,19.07
2023-07-31T23:34:28.160Z,19.17
2023-07-31T23:37:31.081Z,18.91
2023-07-31T23:40:33.760Z,18.95
2023-07-31T23:43:37.246Z,18.81
2023-07-31T23:46:47.067Z,18.63
2023-07-31T23:49:50.300Z,18.71
2023-07-31T23:52:52.894Z,18.74
2023-07-31T23:55:55.851Z,18.69
2023-07-31T23:58:58.625Z,18.58
